createdAt,value
2023-01-15T00:02:23.728Z,6.63
2023-01-15T00:04:52.129Z,7.47
2023-01-15T00:07:19.849Z,5.47
2023-01-15T00:09:47.115Z,7.72
2023-01-15T00:12:14.476Z,5.47
2023-01-15T00:14:41.676Z,5.43
2023-01-15T00:17:08.921Z,6.93
2023-01-15T00:19:36.228Z,7.30
2023-01-15T00:22:03.480Z,5.90
2023-01-15T00:24:49.341Z,5.57
2023-01-15T00:27:35.073Z,6.88
2023-01-15T00:30:02.386Z,5.90
2023-01-15T00:32:30.554Z,7.53
2023-01-15T00:35:01.259Z,4.55
2023-01-15T00:37:28.474Z,5.80
2023-01-15T00:39:55.654Z,7.72
2023-01-15T00:42:22.938Z,5.70
2023-01-15T00:44:50.270Z,7.43
2023-01-15T00:47:17.563Z,7.38
2023-01-15T00:49:45.185Z,7.47
2023-01-15T00:52:12.878Z,6.35
2023-01-15T00:54:40.148Z,8.48
2023-01-15T00:57:07.563Z,7.97
2023-01-15T00:59:35.379Z,5.55
2023-01-15T01:02:02.848Z,12.35
2023-01-15T01:04:30.201Z,5.95
2023-01-15T01:06:58.361Z,6.70
2023-01-15T01:09:26.102Z,5.55
2023-01-15T01:11:53.423Z,8.82
2023-01-15T01:14:20.817Z,4.90
2023-01-15T01:16:48.098Z,7.57
2023-01-15T01:19:18.925Z,8.07
2023-01-15T01:21:47.412Z,9.52
2023-01-15T01:24:17.518Z,4.38
2023-01-15T01:29:13.808Z,6.07
2023-01-15T01:31:41.707Z,6.53
2023-01-15T01:34:10.430Z,7.35
2023-01-15T01:36:40.778Z,6.68
2023-01-15T01:39:13.061Z,6.72
2023-01-15T01:41:40.440Z,8.65
2023-01-15T01:44:33.150Z,5.00
2023-01-15T01:47:03.446Z,8.18
2023-01-15T01:49:31.155Z,5.63
2023-01-15T01:52:04.281Z,7.45
2023-01-15T01:54:32.066Z,6.13
2023-01-15T01:56:59.383Z,6.75
2023-01-15T01:59:27.126Z,7.63
2023-01-15T02:01:54.586Z,4.15
2023-01-15T02:04:22.955Z,5.72
2023-01-15T02:06:51.873Z,6.38
2023-01-15T02:09:19.344Z,6.18
2023-01-15T02:11:47.917Z,7.20
2023-01-15T02:14:23.004Z,5.68
2023-01-15T02:16:58.018Z,10.07
2023-01-15T02:20:02.963Z,3.88
2023-01-15T02:22:35.690Z,3.83
2023-01-15T02:25:32.242Z,9.73
2023-01-15T02:28:16.923Z,5.85
2023-01-15T02:30:47.999Z,5.75
2023-01-15T02:33:20.262Z,4.10
2023-01-15T02:35:57.855Z,8.45
2023-01-15T02:38:27.511Z,7.07
2023-01-15T02:40:57.133Z,9.23
2023-01-15T02:43:25.383Z,7.25
2023-01-15T02:45:54.559Z,7.20
2023-01-15T02:48:28.557Z,7.13
2023-01-15T02:51:01.989Z,3.92
2023-01-15T02:53:30.917Z,6.85
2023-01-15T02:56:04.631Z,5.57
2023-01-15T02:58:40.226Z,9.02
2023-01-15T03:01:14.839Z,3.97
2023-01-15T03:04:03.613Z,5.35
2023-01-15T03:06:38.911Z,7.75
2023-01-15T03:09:07.294Z,9.25
2023-01-15T03:11:38.221Z,6.60
2023-01-15T03:14:08.690Z,6.97
2023-01-15T03:19:29.835Z,6.65
2023-01-15T03:22:13.397Z,9.52
2023-01-15T03:24:49.928Z,8.18
2023-01-15T03:27:20.350Z,10.00
2023-01-15T03:29:55.790Z,5.57
2023-01-15T03:32:23.119Z,8.80
2023-01-15T03:34:52.747Z,6.28
2023-01-15T03:37:23.396Z,9.45
2023-01-15T03:39:52.446Z,9.60
2023-01-15T03:42:24.208Z,8.52
2023-01-15T03:45:13.401Z,5.80
2023-01-15T03:48:02.293Z,6.07
2023-01-15T03:50:29.750Z,4.93
2023-01-15T03:53:23.656Z,9.45
2023-01-15T03:56:23.512Z,5.05
2023-01-15T03:58:54.171Z,9.95
2023-01-15T04:01:32.812Z,4.97
2023-01-15T04:04:01.289Z,6.88
2023-01-15T04:06:31.236Z,9.07
2023-01-15T04:08:59.747Z,9.03
2023-01-15T04:11:29.040Z,10.32
2023-01-15T04:14:01.898Z,8.30
2023-01-15T04:16:35.717Z,5.38
2023-01-15T04:19:03.806Z,8.40
2023-01-15T04:21:34.054Z,8.10
2023-01-15T04:24:01.301Z,5.30
2023-01-15T04:26:28.564Z,5.28
2023-01-15T04:28:55.883Z,8.27
2023-01-15T04:31:23.197Z,5.93
2023-01-15T04:33:50.423Z,4.72
2023-01-15T04:36:17.845Z,6.30
2023-01-15T04:38:45.276Z,4.72
2023-01-15T04:41:31.212Z,7.25
2023-01-15T04:44:07.695Z,4.57
2023-01-15T04:46:44.027Z,3.83
2023-01-15T04:49:14.181Z,8.60
2023-01-15T04:54:09.875Z,4.47
2023-01-15T04:56:39.560Z,10.50
2023-01-15T04:59:07.034Z,4.13
2023-01-15T05:01:35.088Z,4.70
2023-01-15T05:04:02.665Z,4.72
2023-01-15T05:06:31.425Z,4.45
2023-01-15T05:08:59.762Z,5.15
2023-01-15T05:11:27.806Z,3.20
2023-01-15T05:13:55.900Z,4.10
2023-01-15T05:16:25.490Z,7.55
2023-01-15T05:18:55.200Z,3.83
2023-01-15T05:21:27.803Z,4.40
2023-01-15T05:23:57.236Z,6.97
2023-01-15T05:26:25.373Z,3.72
2023-01-15T05:28:57.001Z,5.55
2023-01-15T05:31:25.355Z,7.35
2023-01-15T05:33:53.229Z,7.93
2023-01-15T05:36:23.058Z,4.28
2023-01-15T05:38:50.642Z,3.75
2023-01-15T05:41:38.405Z,8.73
2023-01-15T05:44:08.625Z,6.20
2023-01-15T05:46:38.981Z,7.80
2023-01-15T05:49:08.656Z,4.43
2023-01-15T05:51:38.899Z,3.15
2023-01-15T05:54:07.516Z,6.90
2023-01-15T05:56:36.093Z,4.35
2023-01-15T05:59:04.245Z,5.10
2023-01-15T06:01:31.504Z,8.43
2023-01-15T06:03:59.917Z,2.92
2023-01-15T06:06:27.706Z,4.88
2023-01-15T06:08:55.024Z,4.97
2023-01-15T06:11:22.762Z,8.35
2023-01-15T06:13:50.586Z,6.93
2023-01-15T06:16:18.901Z,7.78
2023-01-15T06:18:46.340Z,7.00
2023-01-15T06:21:14.385Z,3.33
2023-01-15T06:23:42.461Z,7.32
2023-01-15T06:26:18.206Z,4.18
2023-01-15T06:28:46.581Z,2.20
2023-01-15T06:31:16.710Z,4.68
2023-01-15T06:36:16.512Z,3.90
2023-01-15T06:38:44.421Z,5.03
2023-01-15T06:41:35.876Z,3.92
2023-01-15T06:44:22.365Z,2.30
2023-01-15T06:47:09.221Z,6.15
2023-01-15T06:49:37.350Z,7.88
2023-01-15T06:52:04.996Z,4.10
2023-01-15T06:54:33.010Z,3.13
2023-01-15T06:57:01.209Z,4.95
2023-01-15T06:59:28.589Z,4.93
2023-01-15T07:01:56.091Z,4.00
2023-01-15T07:04:23.344Z,2.78
2023-01-15T07:06:50.672Z,2.33
2023-01-15T07:09:17.926Z,4.63
2023-01-15T07:11:51.179Z,3.97
2023-01-15T07:14:20.142Z,3.33
2023-01-15T07:16:48.213Z,5.65
2023-01-15T07:19:16.479Z,6.80
2023-01-15T07:21:44.026Z,4.97
2023-01-15T07:24:11.908Z,3.08
2023-01-15T07:26:39.395Z,7.95
2023-01-15T07:29:06.666Z,2.50
2023-01-15T07:31:34.356Z,7.97
2023-01-15T07:34:01.945Z,7.38
2023-01-15T07:36:29.231Z,2.72
2023-01-15T07:38:56.521Z,3.30
2023-01-15T07:41:42.542Z,4.78
2023-01-15T07:44:30.731Z,6.38
2023-01-15T07:47:16.836Z,6.03
2023-01-15T07:49:48.491Z,6.78
2023-01-15T07:52:21.227Z,7.45
2023-01-15T07:54:50.024Z,6.07
2023-01-15T07:57:22.847Z,9.05
2023-01-15T07:59:50.594Z,11.57
2023-01-15T08:02:18.053Z,7.45
2023-01-15T08:04:45.506Z,7.97
2023-01-15T08:07:13.100Z,10.15
2023-01-15T08:09:40.495Z,10.52
2023-01-15T08:12:26.626Z,7.40
2023-01-15T08:15:12.740Z,9.18
2023-01-15T08:17:42.978Z,5.72
2023-01-15T08:20:28.332Z,8.55
2023-01-15T08:22:55.746Z,7.32
2023-01-15T08:25:25.013Z,7.65
2023-01-15T08:27:53.670Z,7.38
2023-01-15T08:30:23.934Z,8.57
2023-01-15T08:32:52.322Z,12.50
2023-01-15T08:35:19.875Z,12.88
2023-01-15T08:37:47.425Z,11.05
2023-01-15T08:40:14.807Z,9.73
2023-01-15T08:42:42.478Z,15.55
2023-01-15T08:45:10.397Z,11.40
2023-01-15T08:47:37.890Z,13.02
2023-01-15T08:50:07.726Z,7.07
2023-01-15T08:52:35.064Z,9.82
2023-01-15T08:55:02.431Z,9.98
2023-01-15T08:57:29.736Z,9.85
2023-01-15T08:59:57.189Z,15.40
2023-01-15T09:02:24.392Z,11.70
2023-01-15T09:04:52.825Z,8.35
2023-01-15T09:07:20.487Z,15.02
2023-01-15T09:09:47.919Z,9.15
2023-01-15T09:12:15.444Z,12.13
2023-01-15T09:14:58.442Z,8.55
2023-01-15T09:17:30.900Z,9.10
2023-01-15T09:19:58.369Z,11.50
2023-01-15T09:22:30.031Z,13.63
2023-01-15T09:24:57.676Z,11.82
2023-01-15T09:27:25.433Z,11.15
2023-01-15T09:29:52.696Z,9.93
2023-01-15T09:32:20.037Z,7.43
2023-01-15T09:34:47.305Z,7.15
2023-01-15T09:37:14.820Z,17.67
2023-01-15T09:39:42.196Z,15.23
2023-01-15T09:42:21.777Z,12.00
2023-01-15T09:45:10.724Z,16.10
2023-01-15T09:48:07.377Z,15.45
2023-01-15T09:50:56.895Z,12.30
2023-01-15T09:53:37.200Z,11.02
2023-01-15T09:56:04.969Z,11.82
2023-01-15T09:58:37.666Z,10.93
2023-01-15T10:01:05.492Z,10.82
2023-01-15T10:03:41.915Z,9.32
2023-01-15T10:06:23.254Z,12.88
2023-01-15T10:08:51.697Z,14.45
2023-01-15T10:12:14.645Z,12.00
2023-01-15T10:14:58.078Z,9.50
2023-01-15T10:17:28.939Z,12.93
2023-01-15T10:19:57.378Z,11.48
2023-01-15T10:22:45.443Z,8.55
2023-01-15T10:25:17.847Z,10.40
2023-01-15T10:27:47.236Z,11.77
2023-01-15T10:30:42.878Z,10.00
2023-01-15T10:33:46.949Z,11.70
2023-01-15T10:36:21.626Z,7.75
2023-01-15T10:38:54.077Z,17.35
2023-01-15T10:41:30.646Z,16.00
2023-01-15T10:44:15.008Z,8.95
2023-01-15T10:46:44.461Z,13.13
2023-01-15T10:49:15.145Z,17.17
2023-01-15T10:51:46.592Z,10.07
2023-01-15T10:54:30.254Z,16.50
2023-01-15T10:57:13.133Z,10.55
2023-01-15T10:59:43.692Z,9.15
2023-01-15T11:02:18.648Z,12.30
2023-01-15T11:04:46.024Z,11.07
2023-01-15T11:07:14.061Z,11.95
2023-01-15T11:09:41.834Z,11.65
2023-01-15T11:12:25.921Z,13.70
2023-01-15T11:15:22.501Z,14.73
2023-01-15T11:18:08.745Z,14.35
2023-01-15T11:20:43.066Z,11.38
2023-01-15T11:23:15.516Z,12.35
2023-01-15T11:25:54.403Z,9.20
2023-01-15T11:28:43.585Z,5.28
2023-01-15T11:31:12.134Z,12.67
2023-01-15T11:33:40.048Z,14.48
2023-01-15T11:36:20.290Z,9.18
2023-01-15T11:38:50.128Z,11.98
2023-01-15T11:41:46.463Z,12.00
2023-01-15T11:44:47.132Z,11.00
2023-01-15T11:47:36.420Z,13.65
2023-01-15T11:50:36.261Z,9.97
2023-01-15T11:53:03.543Z,13.07
2023-01-15T11:55:31.215Z,11.10
2023-01-15T11:57:58.780Z,10.77
2023-01-15T12:00:33.850Z,12.60
2023-01-15T12:03:11.744Z,9.18
2023-01-15T12:05:46.669Z,15.57
2023-01-15T12:08:40.968Z,10.10
2023-01-15T12:11:26.816Z,12.45
2023-01-15T12:14:10.036Z,12.25
2023-01-15T12:17:09.593Z,8.68
2023-01-15T12:19:39.517Z,9.50
2023-01-15T12:22:10.740Z,10.30
2023-01-15T12:24:38.038Z,6.97
2023-01-15T12:27:27.015Z,8.70
2023-01-15T12:29:54.743Z,16.25
2023-01-15T12:32:31.313Z,8.73
2023-01-15T12:35:05.909Z,13.32
2023-01-15T12:37:39.705Z,13.23
2023-01-15T12:40:06.976Z,11.27
2023-01-15T12:42:54.602Z,10.60
2023-01-15T12:45:27.148Z,8.95
2023-01-15T12:48:00.237Z,7.90
2023-01-15T12:50:49.659Z,12.70
2023-01-15T12:53:24.220Z,9.23
2023-01-15T12:55:59.241Z,10.30
2023-01-15T12:58:26.396Z,8.05
2023-01-15T13:01:03.397Z,8.13
2023-01-15T13:03:36.618Z,7.90
2023-01-15T13:06:05.712Z,13.80
2023-01-15T13:08:50.682Z,13.52
2023-01-15T13:11:18.017Z,10.85
2023-01-15T13:13:57.999Z,11.25
2023-01-15T13:16:36.250Z,10.57
2023-01-15T13:19:13.993Z,13.50
2023-01-15T13:21:41.703Z,8.73
2023-01-15T13:24:26.117Z,14.32
2023-01-15T13:27:18.358Z,9.65
2023-01-15T13:30:07.307Z,12.10
2023-01-15T13:32:51.866Z,10.70
2023-01-15T13:35:28.704Z,12.30
2023-01-15T13:37:59.233Z,9.63
2023-01-15T13:40:35.442Z,8.82
2023-01-15T13:43:05.156Z,10.50
2023-01-15T13:45:43.303Z,12.93
2023-01-15T13:48:17.311Z,10.15
2023-01-15T13:50:58.867Z,10.77
2023-01-15T13:53:40.391Z,10.77
2023-01-15T13:56:10.253Z,9.38
2023-01-15T13:58:52.649Z,10.20
2023-01-15T14:01:20.739Z,10.25
2023-01-15T14:04:08.873Z,9.25
2023-01-15T14:06:45.058Z,11.00
2023-01-15T14:09:15.152Z,12.25
2023-01-15T14:14:15.768Z,15.43
2023-01-15T14:16:56.641Z,9.20
2023-01-15T14:19:52.119Z,11.75
2023-01-15T14:22:40.926Z,15.10
2023-01-15T14:25:26.896Z,10.82
2023-01-15T14:28:22.181Z,11.73
2023-01-15T14:31:17.587Z,7.50
2023-01-15T14:33:55.880Z,13.73
2023-01-15T14:36:31.943Z,11.32
2023-01-15T14:39:01.792Z,11.95
2023-01-15T14:41:54.693Z,12.35
2023-01-15T14:44:29.891Z,13.20
2023-01-15T14:47:02.534Z,14.88
2023-01-15T14:49:32.421Z,19.63
2023-01-15T14:51:59.740Z,16.23
2023-01-15T14:54:28.476Z,10.18
2023-01-15T14:56:57.912Z,11.30
2023-01-15T14:59:58.325Z,9.70
2023-01-15T15:02:33.482Z,12.18
2023-01-15T15:05:01.294Z,10.10
2023-01-15T15:07:33.914Z,11.70
2023-01-15T15:10:14.343Z,12.32
2023-01-15T15:13:06.468Z,11.07
2023-01-15T15:15:48.106Z,7.75
2023-01-15T15:18:29.000Z,9.38
2023-01-15T15:21:02.793Z,10.38
2023-01-15T15:23:51.432Z,8.63
2023-01-15T15:26:22.825Z,11.63
2023-01-15T15:28:58.331Z,12.40
2023-01-15T15:31:26.442Z,15.70
2023-01-15T15:33:55.384Z,13.45
2023-01-15T15:36:24.674Z,11.43
2023-01-15T15:38:58.568Z,10.13
2023-01-15T15:41:47.531Z,10.73
2023-01-15T15:44:45.546Z,9.60
2023-01-15T15:47:42.259Z,16.92
2023-01-15T15:50:23.551Z,10.85
2023-01-15T15:52:51.785Z,10.95
2023-01-15T15:55:20.189Z,7.30
2023-01-15T15:57:50.992Z,9.90
2023-01-15T16:00:20.722Z,9.50
2023-01-15T16:02:48.419Z,11.98
2023-01-15T16:05:18.936Z,11.90
2023-01-15T16:07:46.804Z,10.75
2023-01-15T16:10:15.398Z,10.77
2023-01-15T16:12:53.681Z,9.07
2023-01-15T16:15:28.594Z,9.48
2023-01-15T16:17:57.294Z,9.95
2023-01-15T16:20:25.677Z,9.85
2023-01-15T16:23:04.956Z,13.18
2023-01-15T16:25:39.322Z,14.90
2023-01-15T16:28:07.077Z,10.48
2023-01-15T16:30:34.500Z,10.65
2023-01-15T16:33:08.096Z,10.82
2023-01-15T16:35:38.722Z,11.77
2023-01-15T16:38:07.765Z,10.13
2023-01-15T16:40:37.816Z,16.83
2023-01-15T16:45:53.487Z,13.23
2023-01-15T16:48:22.939Z,14.35
2023-01-15T16:50:51.585Z,13.63
2023-01-15T16:53:31.692Z,15.63
2023-01-15T16:58:34.267Z,21.25
2023-01-15T17:01:02.896Z,9.90
2023-01-15T17:03:31.751Z,16.98
2023-01-15T17:06:05.905Z,14.38
2023-01-15T17:08:41.064Z,13.48
2023-01-15T17:11:19.660Z,10.00
2023-01-15T17:13:47.222Z,10.13
2023-01-15T17:16:24.301Z,14.02
2023-01-15T17:18:51.895Z,10.85
2023-01-15T17:21:27.518Z,10.88
2023-01-15T17:23:55.940Z,9.52
2023-01-15T17:26:25.722Z,8.50
2023-01-15T17:28:53.248Z,13.60
2023-01-15T17:31:31.726Z,9.20
2023-01-15T17:34:01.700Z,12.00
2023-01-15T17:36:29.739Z,12.07
2023-01-15T17:38:57.363Z,9.15
2023-01-15T17:41:24.775Z,9.23
2023-01-15T17:43:52.166Z,9.23
2023-01-15T17:46:19.656Z,10.80
2023-01-15T17:48:47.081Z,12.63
2023-01-15T17:51:15.663Z,9.40
2023-01-15T17:53:43.053Z,8.88
2023-01-15T17:56:28.841Z,10.45
2023-01-15T17:59:14.172Z,10.55
2023-01-15T18:02:02.862Z,8.80
2023-01-15T18:05:00.373Z,14.05
2023-01-15T18:07:33.769Z,15.65
2023-01-15T18:10:01.489Z,8.65
2023-01-15T18:12:28.792Z,8.38
2023-01-15T18:14:56.138Z,8.57
2023-01-15T18:17:23.473Z,11.13
2023-01-15T18:19:50.860Z,7.03
2023-01-15T18:22:19.056Z,7.18
2023-01-15T18:24:46.882Z,8.85
2023-01-15T18:27:15.747Z,9.82
2023-01-15T18:29:44.488Z,13.25
2023-01-15T18:32:11.741Z,8.98
2023-01-15T18:34:39.178Z,10.20
2023-01-15T18:37:07.055Z,8.68
2023-01-15T18:39:37.138Z,9.98
2023-01-15T18:44:50.668Z,8.35
2023-01-15T18:47:18.075Z,13.13
2023-01-15T18:49:46.110Z,11.15
2023-01-15T18:52:54.366Z,12.35
2023-01-15T18:55:25.800Z,9.15
2023-01-15T18:57:56.435Z,8.20
2023-01-15T19:00:24.884Z,7.82
2023-01-15T19:02:52.475Z,11.82
2023-01-15T19:05:20.121Z,15.57
2023-01-15T19:07:47.693Z,10.73
2023-01-15T19:10:17.105Z,14.07
2023-01-15T19:12:45.181Z,12.65
2023-01-15T19:15:56.575Z,15.50
2023-01-15T19:18:42.176Z,15.00
2023-01-15T19:21:10.562Z,16.52
2023-01-15T19:23:37.925Z,10.80
2023-01-15T19:26:05.371Z,12.25
2023-01-15T19:28:33.448Z,16.50
2023-01-15T19:31:19.092Z,17.73
2023-01-15T19:33:46.368Z,10.98
2023-01-15T19:36:13.658Z,17.10
2023-01-15T19:38:41.526Z,18.98
2023-01-15T19:41:29.188Z,10.98
2023-01-15T19:44:15.087Z,15.65
2023-01-15T19:47:01.072Z,16.83
2023-01-15T19:49:52.967Z,11.98
2023-01-15T19:52:35.923Z,9.80
2023-01-15T19:55:08.737Z,15.07
2023-01-15T19:57:36.709Z,11.82
2023-01-15T20:00:05.905Z,10.48
2023-01-15T20:05:01.558Z,10.98
2023-01-15T20:07:28.988Z,11.82
2023-01-15T20:09:56.293Z,14.77
2023-01-15T20:12:42.310Z,14.13
2023-01-15T20:15:09.888Z,10.45
2023-01-15T20:17:37.226Z,12.88
2023-01-15T20:20:05.097Z,13.48
2023-01-15T20:22:32.470Z,9.43
2023-01-15T20:24:59.933Z,10.93
2023-01-15T20:27:32.911Z,12.73
2023-01-15T20:30:07.324Z,11.63
2023-01-15T20:32:35.919Z,11.20
2023-01-15T20:35:07.939Z,13.20
2023-01-15T20:37:35.302Z,14.23
2023-01-15T20:40:02.691Z,10.45
2023-01-15T20:42:48.634Z,14.35
2023-01-15T20:45:16.924Z,17.48
2023-01-15T20:48:19.366Z,21.65
2023-01-15T20:51:01.009Z,15.65
2023-01-15T20:53:33.850Z,12.32
2023-01-15T20:56:02.519Z,16.17
2023-01-15T20:58:30.094Z,12.40
2023-01-15T21:01:06.666Z,13.32
2023-01-15T21:03:34.578Z,12.20
2023-01-15T21:06:04.639Z,11.85
2023-01-15T21:08:33.731Z,14.93
2023-01-15T21:11:01.580Z,16.70
2023-01-15T21:13:29.241Z,15.30
2023-01-15T21:15:59.068Z,16.23
2023-01-15T21:18:29.234Z,15.88
2023-01-15T21:20:56.886Z,16.08
2023-01-15T21:23:25.190Z,14.75
2023-01-15T21:25:59.042Z,12.93
2023-01-15T21:28:26.991Z,13.48
2023-01-15T21:30:54.848Z,13.45
2023-01-15T21:33:22.221Z,14.25
2023-01-15T21:35:49.673Z,11.48
2023-01-15T21:38:17.041Z,11.63
2023-01-15T21:40:44.293Z,14.63
2023-01-15T21:43:30.263Z,14.98
2023-01-15T21:46:05.077Z,15.05
2023-01-15T21:48:43.223Z,13.27
2023-01-15T21:51:12.472Z,11.05
2023-01-15T21:53:39.697Z,15.02
2023-01-15T21:56:07.310Z,11.18
2023-01-15T21:58:38.224Z,13.98
2023-01-15T22:01:10.224Z,17.83
2023-01-15T22:03:38.275Z,14.48
2023-01-15T22:06:06.945Z,17.85
2023-01-15T22:08:34.206Z,9.60
2023-01-15T22:11:03.906Z,10.85
2023-01-15T22:13:33.072Z,11.88
2023-01-15T22:16:02.838Z,13.60
2023-01-15T22:18:31.030Z,14.18
2023-01-15T22:21:04.165Z,13.02
2023-01-15T22:23:32.292Z,16.23
2023-01-15T22:25:59.629Z,11.25
2023-01-15T22:28:26.947Z,13.75
2023-01-15T22:30:54.272Z,11.82
2023-01-15T22:33:22.374Z,10.95
2023-01-15T22:35:59.862Z,9.90
2023-01-15T22:38:27.792Z,10.98
2023-01-15T22:40:58.716Z,10.63
2023-01-15T22:43:26.542Z,11.32
2023-01-15T22:45:53.901Z,10.20
2023-01-15T22:48:21.386Z,9.98
2023-01-15T22:50:48.701Z,10.98
2023-01-15T22:53:16.030Z,8.75
2023-01-15T22:55:43.393Z,15.50
2023-01-15T22:58:10.699Z,10.90
2023-01-15T23:00:37.998Z,8.55
2023-01-15T23:03:05.765Z,8.13
2023-01-15T23:05:40.237Z,11.02
2023-01-15T23:08:07.975Z,8.80
2023-01-15T23:10:35.768Z,7.55
2023-01-15T23:13:03.511Z,9.40
2023-01-15T23:15:30.907Z,16.20
2023-01-15T23:17:58.272Z,14.75
2023-01-15T23:20:25.852Z,13.23
2023-01-15T23:22:53.163Z,16.83
2023-01-15T23:25:20.496Z,11.60
2023-01-15T23:27:48.037Z,9.80
2023-01-15T23:30:15.631Z,15.13
2023-01-15T23:32:43.036Z,11.80
2023-01-15T23:35:10.358Z,10.45
2023-01-15T23:37:37.717Z,9.88
2023-01-15T23:40:05.640Z,10.13
2023-01-15T23:42:51.744Z,13.23
2023-01-15T23:45:37.802Z,11.38
2023-01-15T23:48:05.359Z,14.88
2023-01-15T23:50:32.757Z,10.68
2023-01-15T23:53:00.065Z,18.33
2023-01-15T23:55:27.553Z,14.60
2023-01-15T23:57:54.913Z,10.63
